createdAt,value
2023-02-19T00:00:04.369Z,1037.07
2023-02-19T00:10:01.124Z,1037.07
2023-02-19T00:20:01.302Z,1037.07
2023-02-19T00:30:01.166Z,1037.07
2023-02-19T00:40:01.214Z,1037.07
2023-02-19T00:50:01.092Z,1037.07
2023-02-19T01:00:02.048Z,1037.07
2023-02-19T01:10:01.056Z,1037.07
2023-02-19T01:20:01.276Z,1037.07
2023-02-19T01:30:01.530Z,1037.07
2023-02-19T01:40:01.109Z,1037.07
2023-02-19T01:50:02.648Z,1037.07
2023-02-19T02:00:01.540Z,1037.07
2023-02-19T02:10:01.088Z,1019.09
2023-02-19T02:20:00.208Z,1019.10
2023-02-19T02:30:01.932Z,1019.12
2023-02-19T02:40:03.940Z,1019.03
2023-02-19T02:50:01.538Z,1018.82
2023-02-19T03:00:01.812Z,1018.91
2023-02-19T03:10:01.341Z,1019.07
2023-02-19T03:20:03.894Z,1019.23
2023-02-19T03:30:01.411Z,1019.42
2023-02-19T03:40:01.485Z,1019.32
2023-02-19T03:50:01.317Z,1019.39
2023-02-19T04:00:03.952Z,1019.54
2023-02-19T04:10:02.560Z,1019.64
2023-02-19T04:20:01.593Z,1019.68
2023-02-19T04:30:01.629Z,1019.88
2023-02-19T04:40:00.226Z,1019.95
2023-02-19T04:50:01.578Z,1020.00
2023-02-19T05:00:04.061Z,1020.07
2023-02-19T05:10:03.485Z,1020.13
2023-02-19T05:20:01.502Z,1020.17
2023-02-19T05:30:01.339Z,1020.13
2023-02-19T05:40:01.513Z,1020.19
2023-02-19T05:50:01.087Z,1020.21
2023-02-19T06:00:02.013Z,1020.32
2023-02-19T06:10:01.287Z,1020.32
2023-02-19T06:20:01.208Z,1020.32
2023-02-19T06:30:01.006Z,1020.32
2023-02-19T06:40:01.925Z,1020.32
2023-02-19T06:50:01.047Z,1020.32
2023-02-19T07:00:01.156Z,1020.32
2023-02-19T07:10:01.478Z,1020.32
2023-02-19T07:20:01.072Z,1020.32
2023-02-19T07:30:01.171Z,1020.32
2023-02-19T07:40:01.077Z,1020.32
2023-02-19T07:50:02.451Z,1020.32
2023-02-19T08:00:02.364Z,1020.32
2023-02-19T08:10:01.562Z,1020.32
2023-02-19T08:20:00.214Z,1020.32
2023-02-19T08:30:02.090Z,1020.32
2023-02-19T08:40:01.562Z,1020.32
2023-02-19T08:50:01.078Z,1020.32
2023-02-19T09:00:01.368Z,1020.32
2023-02-19T09:10:01.057Z,1020.32
2023-02-19T09:20:00.986Z,1020.32
2023-02-19T09:30:03.005Z,1020.32
2023-02-19T09:40:01.139Z,1020.32
2023-02-19T09:50:01.283Z,1020.32
2023-02-19T10:00:01.549Z,1020.32
2023-02-19T10:10:01.548Z,1020.32
2023-02-19T10:20:02.314Z,1020.32
2023-02-19T10:30:01.211Z,1020.32
2023-02-19T10:40:01.020Z,1020.32
2023-02-19T10:50:04.086Z,1020.32
2023-02-19T11:00:01.254Z,1020.32
2023-02-19T11:10:04.819Z,1020.32
2023-02-19T11:20:02.410Z,1020.32
2023-02-19T11:30:00.323Z,1020.32
2023-02-19T11:40:01.027Z,1020.32
2023-02-19T11:50:02.768Z,1020.32
2023-02-19T12:00:02.722Z,1020.32
2023-02-19T12:10:02.385Z,1020.32
2023-02-19T12:20:02.663Z,1020.32
2023-02-19T12:30:01.577Z,1020.32
2023-02-19T12:40:01.224Z,1020.32
2023-02-19T12:50:02.024Z,1020.32
2023-02-19T13:00:00.946Z,1020.32
2023-02-19T13:10:01.523Z,1020.32
2023-02-19T13:20:01.209Z,1020.32
2023-02-19T13:30:02.264Z,1020.32
2023-02-19T13:40:01.214Z,1020.32
2023-02-19T13:50:03.246Z,1020.32
2023-02-19T14:00:01.550Z,1020.32
2023-02-19T14:10:01.983Z,1020.32
2023-02-19T14:30:02.978Z,1020.32
2023-02-19T14:40:00.220Z,1020.32
2023-02-19T14:50:01.119Z,1020.32
2023-02-19T15:00:01.156Z,1020.32
2023-02-19T15:10:03.700Z,1020.32
2023-02-19T15:20:02.462Z,1020.32
2023-02-19T15:30:00.295Z,1020.32
2023-02-19T15:40:01.299Z,1020.32
2023-02-19T15:50:01.354Z,1020.32
2023-02-19T16:00:02.041Z,1020.32
2023-02-19T16:10:01.294Z,1020.32
2023-02-19T16:20:01.153Z,1020.32
2023-02-19T16:30:01.372Z,1020.32
2023-02-19T16:40:02.385Z,1020.32
2023-02-19T16:50:02.003Z,1020.32
2023-02-19T17:00:01.064Z,1020.32
2023-02-19T17:10:01.327Z,1020.32
2023-02-19T17:20:01.912Z,1020.32
2023-02-19T17:30:01.152Z,1020.32
2023-02-19T17:40:01.138Z,1020.32
2023-02-19T17:50:02.370Z,1020.32
2023-02-19T18:00:00.208Z,1020.32
2023-02-19T18:10:03.824Z,1020.32
2023-02-19T18:20:01.287Z,1020.32
2023-02-19T18:30:02.042Z,1020.32
2023-02-19T18:40:00.216Z,1020.32
2023-02-19T18:50:01.634Z,1020.32
2023-02-19T19:00:01.151Z,1020.32
2023-02-19T19:10:01.008Z,1020.32
2023-02-19T19:20:02.328Z,1020.32
2023-02-19T19:30:00.991Z,1020.32
2023-02-19T19:40:01.194Z,1020.32
2023-02-19T19:50:01.344Z,1020.32
2023-02-19T20:00:00.856Z,1020.32
2023-02-19T20:10:01.500Z,1020.32
2023-02-19T20:20:01.502Z,1020.32
2023-02-19T20:30:01.256Z,1020.32
2023-02-19T20:40:02.388Z,1020.32
2023-02-19T20:50:01.859Z,1020.32
2023-02-19T21:00:02.274Z,1020.32
2023-02-19T21:10:11.099Z,1020.32
2023-02-19T21:20:01.058Z,1020.32
2023-02-19T21:30:01.309Z,1020.32
2023-02-19T21:40:01.411Z,1020.32
2023-02-19T21:50:01.406Z,1020.32
2023-02-19T22:00:00.808Z,1020.32
2023-02-19T22:10:01.403Z,1020.32
2023-02-19T22:20:01.286Z,1020.32
2023-02-19T22:30:01.555Z,1020.32
2023-02-19T22:40:01.292Z,1020.32
2023-02-19T22:50:02.328Z,1020.32
2023-02-19T23:00:01.342Z,1020.32
2023-02-19T23:10:03.077Z,1020.32
2023-02-19T23:20:01.782Z,1020.32
2023-02-19T23:30:01.956Z,1020.32
2023-02-19T23:40:01.122Z,1020.32
2023-02-19T23:50:01.082Z,1020.32
